sensor_id;sensor_type;location;lat;lon;timestamp;P1;P2;P0
62236;PMS5003;69163;48.778;2.308;2023-08-12T00:01:40;3;2;
62236;PMS5003;69163;48.778;2.308;2023-08-12T00:04:05;2;2;
62236;PMS5003;69163;48.778;2.308;2023-08-12T00:06:30;2;2;
62236;PMS5003;69163;48.778;2.308;2023-08-12T00:08:56;3;3;
62236;PMS5003;69163;48.778;2.308;2023-08-12T00:11:20;6;4;
62236;PMS5003;69163;48.778;2.308;2023-08-12T00:13:46;4;4;
62236;PMS5003;69163;48.778;2.308;2023-08-12T00:16:11;4;4;
62236;PMS5003;69163;48.778;2.308;2023-08-12T00:18:36;2;2;
62236;PMS5003;69163;48.778;2.308;2023-08-12T00:21:05;6;6;
62236;PMS5003;69163;48.778;2.308;2023-08-12T00:23:27;3;3;
62236;PMS5003;69163;48.778;2.308;2023-08-12T00:25:52;3;3;
62236;PMS5003;69163;48.778;2.308;2023-08-12T00:28:17;3;3;
62236;PMS5003;69163;48.778;2.308;2023-08-12T00:30:42;3;3;
62236;PMS5003;69163;48.778;2.308;2023-08-12T00:33:07;2;2;
62236;PMS5003;69163;48.778;2.308;2023-08-12T00:35:32;4;4;
62236;PMS5003;69163;48.778;2.308;2023-08-12T00:37:58;5;3;
62236;PMS5003;69163;48.778;2.308;2023-08-12T00:40:23;2;2;
62236;PMS5003;69163;48.778;2.308;2023-08-12T00:42:48;4;3;
62236;PMS5003;69163;48.778;2.308;2023-08-12T00:45:14;3;3;
62236;PMS5003;69163;48.778;2.308;2023-08-12T00:47:39;2;2;
62236;PMS5003;69163;48.778;2.308;2023-08-12T00:50:05;5;3;
62236;PMS5003;69163;48.778;2.308;2023-08-12T00:52:29;6;5;
62236;PMS5003;69163;48.778;2.308;2023-08-12T00:54:54;4;4;
62236;PMS5003;69163;48.778;2.308;2023-08-12T00:57:19;3;3;
62236;PMS5003;69163;48.778;2.308;2023-08-12T00:59:44;3;3;
62236;PMS5003;69163;48.778;2.308;2023-08-12T01:02:10;4;3;
62236;PMS5003;69163;48.778;2.308;2023-08-12T01:04:35;4;4;
62236;PMS5003;69163;48.778;2.308;2023-08-12T01:07:00;4;3;
62236;PMS5003;69163;48.778;2.308;2023-08-12T01:09:25;1;1;
62236;PMS5003;69163;48.778;2.308;2023-08-12T01:11:52;2;2;
62236;PMS5003;69163;48.778;2.308;2023-08-12T01:14:18;3;3;
62236;PMS5003;69163;48.778;2.308;2023-08-12T01:16:43;6;5;
62236;PMS5003;69163;48.778;2.308;2023-08-12T01:19:06;4;3;
62236;PMS5003;69163;48.778;2.308;2023-08-12T01:21:31;3;3;
62236;PMS5003;69163;48.778;2.308;2023-08-12T01:23:57;1;1;
62236;PMS5003;69163;48.778;2.308;2023-08-12T01:26:21;4;3;
62236;PMS5003;69163;48.778;2.308;2023-08-12T01:28:47;3;3;
62236;PMS5003;69163;48.778;2.308;2023-08-12T01:31:14;4;4;
62236;PMS5003;69163;48.778;2.308;2023-08-12T01:33:39;2;2;
62236;PMS5003;69163;48.778;2.308;2023-08-12T01:36:04;2;2;
62236;PMS5003;69163;48.778;2.308;2023-08-12T01:38:28;3;3;
62236;PMS5003;69163;48.778;2.308;2023-08-12T01:40:53;4;4;
62236;PMS5003;69163;48.778;2.308;2023-08-12T01:43:18;4;4;
62236;PMS5003;69163;48.778;2.308;2023-08-12T01:45:43;3;3;
62236;PMS5003;69163;48.778;2.308;2023-08-12T01:48:08;3;3;
62236;PMS5003;69163;48.778;2.308;2023-08-12T01:50:34;3;3;
62236;PMS5003;69163;48.778;2.308;2023-08-12T01:52:59;4;4;
62236;PMS5003;69163;48.778;2.308;2023-08-12T01:55:25;4;4;
62236;PMS5003;69163;48.778;2.308;2023-08-12T01:57:49;2;2;
62236;PMS5003;69163;48.778;2.308;2023-08-12T02:00:15;2;2;
62236;PMS5003;69163;48.778;2.308;2023-08-12T02:02:40;4;4;
62236;PMS5003;69163;48.778;2.308;2023-08-12T02:05:05;4;3;
62236;PMS5003;69163;48.778;2.308;2023-08-12T02:07:30;2;2;
62236;PMS5003;69163;48.778;2.308;2023-08-12T02:09:55;5;4;
62236;PMS5003;69163;48.778;2.308;2023-08-12T02:12:20;3;3;
62236;PMS5003;69163;48.778;2.308;2023-08-12T02:14:46;3;2;
62236;PMS5003;69163;48.778;2.308;2023-08-12T02:17:11;3;3;
62236;PMS5003;69163;48.778;2.308;2023-08-12T02:19:36;6;4;
62236;PMS5003;69163;48.778;2.308;2023-08-12T02:22:01;2;2;
62236;PMS5003;69163;48.778;2.308;2023-08-12T02:24:26;4;4;
62236;PMS5003;69163;48.778;2.308;2023-08-12T02:26:52;4;4;
62236;PMS5003;69163;48.778;2.308;2023-08-12T02:29:16;3;3;
62236;PMS5003;69163;48.778;2.308;2023-08-12T02:31:42;3;3;
62236;PMS5003;69163;48.778;2.308;2023-08-12T02:34:07;3;3;
62236;PMS5003;69163;48.778;2.308;2023-08-12T02:36:32;3;3;
62236;PMS5003;69163;48.778;2.308;2023-08-12T02:38:58;3;3;
62236;PMS5003;69163;48.778;2.308;2023-08-12T02:41:23;4;4;
62236;PMS5003;69163;48.778;2.308;2023-08-12T02:43:48;2;2;
62236;PMS5003;69163;48.778;2.308;2023-08-12T02:46:13;2;2;
62236;PMS5003;69163;48.778;2.308;2023-08-12T02:48:38;5;5;
62236;PMS5003;69163;48.778;2.308;2023-08-12T02:51:04;1;1;
62236;PMS5003;69163;48.778;2.308;2023-08-12T02:53:29;3;3;
62236;PMS5003;69163;48.778;2.308;2023-08-12T02:55:54;3;3;
62236;PMS5003;69163;48.778;2.308;2023-08-12T02:58:19;3;3;
62236;PMS5003;69163;48.778;2.308;2023-08-12T03:00:44;3;3;
62236;PMS5003;69163;48.778;2.308;2023-08-12T03:03:09;3;3;
62236;PMS5003;69163;48.778;2.308;2023-08-12T03:05:34;3;3;
62236;PMS5003;69163;48.778;2.308;2023-08-12T03:08:00;3;3;
62236;PMS5003;69163;48.778;2.308;2023-08-12T03:10:25;3;3;
62236;PMS5003;69163;48.778;2.308;2023-08-12T03:12:50;2;2;
62236;PMS5003;69163;48.778;2.308;2023-08-12T03:15:15;3;3;
62236;PMS5003;69163;48.778;2.308;2023-08-12T03:17:41;2;2;
62236;PMS5003;69163;48.778;2.308;2023-08-12T03:20:06;3;3;
62236;PMS5003;69163;48.778;2.308;2023-08-12T03:22:31;1;1;
62236;PMS5003;69163;48.778;2.308;2023-08-12T03:24:56;3;3;
62236;PMS5003;69163;48.778;2.308;2023-08-12T03:27:21;4;4;
62236;PMS5003;69163;48.778;2.308;2023-08-12T03:29:46;3;3;
62236;PMS5003;69163;48.778;2.308;2023-08-12T03:32:12;1;1;
62236;PMS5003;69163;48.778;2.308;2023-08-12T03:34:37;3;3;
62236;PMS5003;69163;48.778;2.308;2023-08-12T03:37:02;4;2;
62236;PMS5003;69163;48.778;2.308;2023-08-12T03:39:27;3;3;
62236;PMS5003;69163;48.778;2.308;2023-08-12T03:41:52;3;3;
62236;PMS5003;69163;48.778;2.308;2023-08-12T03:44:17;2;1;
62236;PMS5003;69163;48.778;2.308;2023-08-12T03:46:43;1;1;
62236;PMS5003;69163;48.778;2.308;2023-08-12T03:49:08;2;1;
62236;PMS5003;69163;48.778;2.308;2023-08-12T03:51:33;2;2;
62236;PMS5003;69163;48.778;2.308;2023-08-12T03:53:58;2;2;
62236;PMS5003;69163;48.778;2.308;2023-08-12T03:56:24;3;3;
62236;PMS5003;69163;48.778;2.308;2023-08-12T03:58:49;4;2;
62236;PMS5003;69163;48.778;2.308;2023-08-12T04:01:14;3;3;
62236;PMS5003;69163;48.778;2.308;2023-08-12T04:03:39;1;1;
62236;PMS5003;69163;48.778;2.308;2023-08-12T04:06:04;2;2;
62236;PMS5003;69163;48.778;2.308;2023-08-12T04:08:29;2;2;
62236;PMS5003;69163;48.778;2.308;2023-08-12T04:10:55;2;2;
62236;PMS5003;69163;48.778;2.308;2023-08-12T04:13:20;1;1;
62236;PMS5003;69163;48.778;2.308;2023-08-12T04:15:48;2;2;
62236;PMS5003;69163;48.778;2.308;2023-08-12T04:18:10;3;3;
62236;PMS5003;69163;48.778;2.308;2023-08-12T04:20:36;2;2;
62236;PMS5003;69163;48.778;2.308;2023-08-12T04:23:00;3;2;
62236;PMS5003;69163;48.778;2.308;2023-08-12T04:25:26;2;2;
62236;PMS5003;69163;48.778;2.308;2023-08-12T04:27:51;4;2;
62236;PMS5003;69163;48.778;2.308;2023-08-12T04:30:17;4;2;
62236;PMS5003;69163;48.778;2.308;2023-08-12T04:32:41;3;3;
62236;PMS5003;69163;48.778;2.308;2023-08-12T04:35:07;2;2;
62236;PMS5003;69163;48.778;2.308;2023-08-12T04:37:32;2;2;
62236;PMS5003;69163;48.778;2.308;2023-08-12T04:39:57;2;2;
62236;PMS5003;69163;48.778;2.308;2023-08-12T04:42:22;3;3;
62236;PMS5003;69163;48.778;2.308;2023-08-12T04:44:47;2;2;
62236;PMS5003;69163;48.778;2.308;2023-08-12T04:47:13;2;2;
62236;PMS5003;69163;48.778;2.308;2023-08-12T04:49:38;1;1;
62236;PMS5003;69163;48.778;2.308;2023-08-12T04:52:03;5;3;
62236;PMS5003;69163;48.778;2.308;2023-08-12T04:54:28;2;2;
62236;PMS5003;69163;48.778;2.308;2023-08-12T04:56:53;2;2;
62236;PMS5003;69163;48.778;2.308;2023-08-12T04:59:19;3;3;
62236;PMS5003;69163;48.778;2.308;2023-08-12T05:01:44;3;3;
62236;PMS5003;69163;48.778;2.308;2023-08-12T05:04:09;0;0;
62236;PMS5003;69163;48.778;2.308;2023-08-12T05:06:34;2;2;
62236;PMS5003;69163;48.778;2.308;2023-08-12T05:08:59;2;2;
62236;PMS5003;69163;48.778;2.308;2023-08-12T05:11:25;1;1;
62236;PMS5003;69163;48.778;2.308;2023-08-12T05:13:50;2;2;
62236;PMS5003;69163;48.778;2.308;2023-08-12T05:16:15;2;2;
62236;PMS5003;69163;48.778;2.308;2023-08-12T05:18:40;1;1;
62236;PMS5003;69163;48.778;2.308;2023-08-12T05:21:05;1;1;
62236;PMS5003;69163;48.778;2.308;2023-08-12T05:23:30;1;1;
62236;PMS5003;69163;48.778;2.308;2023-08-12T05:25:55;0;0;
62236;PMS5003;69163;48.778;2.308;2023-08-12T05:28:21;2;2;
62236;PMS5003;69163;48.778;2.308;2023-08-12T05:30:46;1;1;
62236;PMS5003;69163;48.778;2.308;2023-08-12T05:33:11;2;2;
62236;PMS5003;69163;48.778;2.308;2023-08-12T05:35:36;1;1;
62236;PMS5003;69163;48.778;2.308;2023-08-12T05:38:02;2;2;
62236;PMS5003;69163;48.778;2.308;2023-08-12T05:40:27;2;2;
62236;PMS5003;69163;48.778;2.308;2023-08-12T05:42:52;2;2;
62236;PMS5003;69163;48.778;2.308;2023-08-12T05:45:17;2;2;
62236;PMS5003;69163;48.778;2.308;2023-08-12T05:47:42;2;2;
62236;PMS5003;69163;48.778;2.308;2023-08-12T05:50:07;0;0;
62236;PMS5003;69163;48.778;2.308;2023-08-12T05:52:32;2;1;
62236;PMS5003;69163;48.778;2.308;2023-08-12T05:54:58;2;2;
62236;PMS5003;69163;48.778;2.308;2023-08-12T05:57:23;2;2;
62236;PMS5003;69163;48.778;2.308;2023-08-12T05:59:48;2;2;
62236;PMS5003;69163;48.778;2.308;2023-08-12T06:02:14;2;2;
62236;PMS5003;69163;48.778;2.308;2023-08-12T06:04:39;4;2;
62236;PMS5003;69163;48.778;2.308;2023-08-12T06:07:04;2;2;
62236;PMS5003;69163;48.778;2.308;2023-08-12T06:09:29;3;2;
62236;PMS5003;69163;48.778;2.308;2023-08-12T06:11:54;3;3;
62236;PMS5003;69163;48.778;2.308;2023-08-12T06:14:19;2;2;
62236;PMS5003;69163;48.778;2.308;2023-08-12T06:16:44;1;1;
62236;PMS5003;69163;48.778;2.308;2023-08-12T06:19:10;1;1;
62236;PMS5003;69163;48.778;2.308;2023-08-12T06:21:35;2;2;
62236;PMS5003;69163;48.778;2.308;2023-08-12T06:24:00;3;3;
62236;PMS5003;69163;48.778;2.308;2023-08-12T06:26:25;1;1;
62236;PMS5003;69163;48.778;2.308;2023-08-12T06:28:50;2;2;
62236;PMS5003;69163;48.778;2.308;2023-08-12T06:31:15;1;1;
62236;PMS5003;69163;48.778;2.308;2023-08-12T06:33:41;1;1;
62236;PMS5003;69163;48.778;2.308;2023-08-12T06:36:06;1;1;
62236;PMS5003;69163;48.778;2.308;2023-08-12T06:38:31;1;1;
62236;PMS5003;69163;48.778;2.308;2023-08-12T06:40:57;2;2;
62236;PMS5003;69163;48.778;2.308;2023-08-12T06:43:21;1;1;
62236;PMS5003;69163;48.778;2.308;2023-08-12T06:45:47;1;1;
62236;PMS5003;69163;48.778;2.308;2023-08-12T06:48:12;1;1;
62236;PMS5003;69163;48.778;2.308;2023-08-12T06:50:37;1;1;
62236;PMS5003;69163;48.778;2.308;2023-08-12T06:53:03;1;1;
62236;PMS5003;69163;48.778;2.308;2023-08-12T06:55:28;2;2;
62236;PMS5003;69163;48.778;2.308;2023-08-12T06:57:53;3;1;
62236;PMS5003;69163;48.778;2.308;2023-08-12T07:00:18;2;2;
62236;PMS5003;69163;48.778;2.308;2023-08-12T07:02:43;1;1;
62236;PMS5003;69163;48.778;2.308;2023-08-12T07:05:09;2;2;
62236;PMS5003;69163;48.778;2.308;2023-08-12T07:07:34;1;1;
62236;PMS5003;69163;48.778;2.308;2023-08-12T07:09:59;2;2;
62236;PMS5003;69163;48.778;2.308;2023-08-12T07:12:24;1;1;
62236;PMS5003;69163;48.778;2.308;2023-08-12T07:14:49;1;1;
62236;PMS5003;69163;48.778;2.308;2023-08-12T07:17:15;2;2;
62236;PMS5003;69163;48.778;2.308;2023-08-12T07:19:39;1;1;
62236;PMS5003;69163;48.778;2.308;2023-08-12T07:22:05;1;1;
62236;PMS5003;69163;48.778;2.308;2023-08-12T07:24:30;1;1;
62236;PMS5003;69163;48.778;2.308;2023-08-12T07:26:55;3;3;
62236;PMS5003;69163;48.778;2.308;2023-08-12T07:29:20;0;0;
62236;PMS5003;69163;48.778;2.308;2023-08-12T07:31:45;0;0;
62236;PMS5003;69163;48.778;2.308;2023-08-12T07:34:11;1;1;
62236;PMS5003;69163;48.778;2.308;2023-08-12T07:36:36;1;1;
62236;PMS5003;69163;48.778;2.308;2023-08-12T07:39:01;2;2;
62236;PMS5003;69163;48.778;2.308;2023-08-12T07:41:26;1;1;
62236;PMS5003;69163;48.778;2.308;2023-08-12T07:43:52;2;1;
62236;PMS5003;69163;48.778;2.308;2023-08-12T07:46:17;0;0;
62236;PMS5003;69163;48.778;2.308;2023-08-12T07:48:42;1;1;
62236;PMS5003;69163;48.778;2.308;2023-08-12T07:51:07;1;1;
62236;PMS5003;69163;48.778;2.308;2023-08-12T07:53:32;1;1;
62236;PMS5003;69163;48.778;2.308;2023-08-12T07:55:57;0;0;
62236;PMS5003;69163;48.778;2.308;2023-08-12T07:58:23;1;1;
62236;PMS5003;69163;48.778;2.308;2023-08-12T08:00:48;1;1;
62236;PMS5003;69163;48.778;2.308;2023-08-12T08:03:13;1;1;
62236;PMS5003;69163;48.778;2.308;2023-08-12T08:05:39;1;1;
62236;PMS5003;69163;48.778;2.308;2023-08-12T08:08:03;2;2;
62236;PMS5003;69163;48.778;2.308;2023-08-12T08:10:28;1;1;
62236;PMS5003;69163;48.778;2.308;2023-08-12T08:12:54;0;0;
62236;PMS5003;69163;48.778;2.308;2023-08-12T08:15:19;2;2;
62236;PMS5003;69163;48.778;2.308;2023-08-12T08:17:44;0;0;
62236;PMS5003;69163;48.778;2.308;2023-08-12T08:20:10;1;1;
62236;PMS5003;69163;48.778;2.308;2023-08-12T08:22:34;2;1;
62236;PMS5003;69163;48.778;2.308;2023-08-12T08:25:00;1;1;
62236;PMS5003;69163;48.778;2.308;2023-08-12T08:27:25;0;0;
62236;PMS5003;69163;48.778;2.308;2023-08-12T08:29:50;1;1;
62236;PMS5003;69163;48.778;2.308;2023-08-12T08:32:16;2;2;
62236;PMS5003;69163;48.778;2.308;2023-08-12T08:34:40;0;0;
62236;PMS5003;69163;48.778;2.308;2023-08-12T08:37:06;1;1;
62236;PMS5003;69163;48.778;2.308;2023-08-12T08:39:31;2;0;
62236;PMS5003;69163;48.778;2.308;2023-08-12T08:41:56;1;1;
62236;PMS5003;69163;48.778;2.308;2023-08-12T08:44:21;0;0;
62236;PMS5003;69163;48.778;2.308;2023-08-12T08:46:47;0;0;
62236;PMS5003;69163;48.778;2.308;2023-08-12T08:49:12;1;1;
62236;PMS5003;69163;48.778;2.308;2023-08-12T08:51:37;0;0;
62236;PMS5003;69163;48.778;2.308;2023-08-12T08:54:02;0;0;
62236;PMS5003;69163;48.778;2.308;2023-08-12T08:56:27;0;0;
62236;PMS5003;69163;48.778;2.308;2023-08-12T08:58:52;1;0;
62236;PMS5003;69163;48.778;2.308;2023-08-12T09:01:18;3;1;
62236;PMS5003;69163;48.778;2.308;2023-08-12T09:03:43;1;1;
62236;PMS5003;69163;48.778;2.308;2023-08-12T09:06:08;0;0;
62236;PMS5003;69163;48.778;2.308;2023-08-12T09:08:33;2;2;
62236;PMS5003;69163;48.778;2.308;2023-08-12T09:10:58;2;2;
62236;PMS5003;69163;48.778;2.308;2023-08-12T09:13:23;1;1;
62236;PMS5003;69163;48.778;2.308;2023-08-12T09:15:49;0;0;
62236;PMS5003;69163;48.778;2.308;2023-08-12T09:18:15;1;1;
62236;PMS5003;69163;48.778;2.308;2023-08-12T09:20:39;1;1;
62236;PMS5003;69163;48.778;2.308;2023-08-12T09:23:04;1;1;
62236;PMS5003;69163;48.778;2.308;2023-08-12T09:25:29;0;0;
62236;PMS5003;69163;48.778;2.308;2023-08-12T09:27:55;1;1;
62236;PMS5003;69163;48.778;2.308;2023-08-12T09:30:20;0;0;
62236;PMS5003;69163;48.778;2.308;2023-08-12T09:32:47;1;1;
62236;PMS5003;69163;48.778;2.308;2023-08-12T09:35:15;3;0;
62236;PMS5003;69163;48.778;2.308;2023-08-12T09:37:35;1;1;
62236;PMS5003;69163;48.778;2.308;2023-08-12T09:40:00;0;0;
62236;PMS5003;69163;48.778;2.308;2023-08-12T09:42:26;1;1;
62236;PMS5003;69163;48.778;2.308;2023-08-12T09:44:51;2;0;
62236;PMS5003;69163;48.778;2.308;2023-08-12T09:47:16;2;1;
62236;PMS5003;69163;48.778;2.308;2023-08-12T09:49:41;2;2;
62236;PMS5003;69163;48.778;2.308;2023-08-12T09:52:07;0;0;
62236;PMS5003;69163;48.778;2.308;2023-08-12T09:54:32;1;1;
62236;PMS5003;69163;48.778;2.308;2023-08-12T09:56:57;3;1;
62236;PMS5003;69163;48.778;2.308;2023-08-12T09:59:22;1;1;
62236;PMS5003;69163;48.778;2.308;2023-08-12T10:01:48;0;0;
62236;PMS5003;69163;48.778;2.308;2023-08-12T10:04:13;1;1;
62236;PMS5003;69163;48.778;2.308;2023-08-12T10:06:38;2;2;
62236;PMS5003;69163;48.778;2.308;2023-08-12T10:09:03;4;2;
62236;PMS5003;69163;48.778;2.308;2023-08-12T10:11:28;3;0;
62236;PMS5003;69163;48.778;2.308;2023-08-12T10:13:53;0;0;
62236;PMS5003;69163;48.778;2.308;2023-08-12T10:16:18;3;3;
62236;PMS5003;69163;48.778;2.308;2023-08-12T10:18:44;2;2;
62236;PMS5003;69163;48.778;2.308;2023-08-12T10:21:09;0;0;
62236;PMS5003;69163;48.778;2.308;2023-08-12T10:23:34;2;2;
62236;PMS5003;69163;48.778;2.308;2023-08-12T10:25:59;1;1;
62236;PMS5003;69163;48.778;2.308;2023-08-12T10:28:24;1;1;
62236;PMS5003;69163;48.778;2.308;2023-08-12T10:30:49;3;2;
62236;PMS5003;69163;48.778;2.308;2023-08-12T10:33:15;2;1;
62236;PMS5003;69163;48.778;2.308;2023-08-12T10:35:41;1;1;
62236;PMS5003;69163;48.778;2.308;2023-08-12T10:38:05;2;1;
62236;PMS5003;69163;48.778;2.308;2023-08-12T10:40:30;3;3;
62236;PMS5003;69163;48.778;2.308;2023-08-12T10:42:55;2;2;
62236;PMS5003;69163;48.778;2.308;2023-08-12T10:45:20;2;2;
62236;PMS5003;69163;48.778;2.308;2023-08-12T10:47:48;3;3;
62236;PMS5003;69163;48.778;2.308;2023-08-12T10:50:17;2;2;
62236;PMS5003;69163;48.778;2.308;2023-08-12T10:52:36;5;3;
62236;PMS5003;69163;48.778;2.308;2023-08-12T10:57:35;2;2;
62236;PMS5003;69163;48.778;2.308;2023-08-12T10:59:52;2;2;
62236;PMS5003;69163;48.778;2.308;2023-08-12T11:02:17;1;1;
62236;PMS5003;69163;48.778;2.308;2023-08-12T11:04:42;1;1;
62236;PMS5003;69163;48.778;2.308;2023-08-12T11:09:33;2;2;
62236;PMS5003;69163;48.778;2.308;2023-08-12T11:11:58;1;1;
62236;PMS5003;69163;48.778;2.308;2023-08-12T11:14:23;2;2;
62236;PMS5003;69163;48.778;2.308;2023-08-12T11:16:48;4;1;
62236;PMS5003;69163;48.778;2.308;2023-08-12T11:19:14;2;0;
62236;PMS5003;69163;48.778;2.308;2023-08-12T11:21:38;1;1;
62236;PMS5003;69163;48.778;2.308;2023-08-12T11:24:04;3;2;
62236;PMS5003;69163;48.778;2.308;2023-08-12T11:26:29;2;1;
62236;PMS5003;69163;48.778;2.308;2023-08-12T11:28:54;4;2;
62236;PMS5003;69163;48.778;2.308;2023-08-12T11:31:19;2;2;
62236;PMS5003;69163;48.778;2.308;2023-08-12T11:33:44;1;1;
62236;PMS5003;69163;48.778;2.308;2023-08-12T11:36:10;2;2;
62236;PMS5003;69163;48.778;2.308;2023-08-12T11:38:35;2;2;
62236;PMS5003;69163;48.778;2.308;2023-08-12T11:41:00;2;2;
62236;PMS5003;69163;48.778;2.308;2023-08-12T11:43:26;2;2;
62236;PMS5003;69163;48.778;2.308;2023-08-12T11:45:50;2;2;
62236;PMS5003;69163;48.778;2.308;2023-08-12T11:48:15;1;1;
62236;PMS5003;69163;48.778;2.308;2023-08-12T11:50:40;1;1;
62236;PMS5003;69163;48.778;2.308;2023-08-12T11:53:06;3;2;
62236;PMS5003;69163;48.778;2.308;2023-08-12T11:55:31;3;3;
62236;PMS5003;69163;48.778;2.308;2023-08-12T11:57:57;5;2;
62236;PMS5003;69163;48.778;2.308;2023-08-12T12:00:21;3;3;
62236;PMS5003;69163;48.778;2.308;2023-08-12T12:02:47;1;1;
62236;PMS5003;69163;48.778;2.308;2023-08-12T12:05:12;5;2;
62236;PMS5003;69163;48.778;2.308;2023-08-12T12:07:37;2;1;
62236;PMS5003;69163;48.778;2.308;2023-08-12T12:10:02;3;3;
62236;PMS5003;69163;48.778;2.308;2023-08-12T12:12:27;4;3;
62236;PMS5003;69163;48.778;2.308;2023-08-12T12:14:52;4;3;
62236;PMS5003;69163;48.778;2.308;2023-08-12T12:17:17;2;2;
62236;PMS5003;69163;48.778;2.308;2023-08-12T12:19:43;6;3;
62236;PMS5003;69163;48.778;2.308;2023-08-12T12:22:08;5;5;
62236;PMS5003;69163;48.778;2.308;2023-08-12T12:26:58;6;6;
62236;PMS5003;69163;48.778;2.308;2023-08-12T12:29:24;5;4;
62236;PMS5003;69163;48.778;2.308;2023-08-12T12:31:49;4;4;
62236;PMS5003;69163;48.778;2.308;2023-08-12T12:34:14;7;5;
62236;PMS5003;69163;48.778;2.308;2023-08-12T12:36:39;7;7;
62236;PMS5003;69163;48.778;2.308;2023-08-12T12:39:05;6;5;
62236;PMS5003;69163;48.778;2.308;2023-08-12T12:41:31;11;7;
62236;PMS5003;69163;48.778;2.308;2023-08-12T12:43:57;8;6;
62236;PMS5003;69163;48.778;2.308;2023-08-12T12:46:21;6;4;
62236;PMS5003;69163;48.778;2.308;2023-08-12T12:48:47;8;5;
62236;PMS5003;69163;48.778;2.308;2023-08-12T12:51:13;7;6;
62236;PMS5003;69163;48.778;2.308;2023-08-12T12:53:37;10;7;
62236;PMS5003;69163;48.778;2.308;2023-08-12T12:56:03;4;4;
62236;PMS5003;69163;48.778;2.308;2023-08-12T12:58:27;8;5;
62236;PMS5003;69163;48.778;2.308;2023-08-12T13:00:53;5;5;
62236;PMS5003;69163;48.778;2.308;2023-08-12T13:03:18;11;7;
62236;PMS5003;69163;48.778;2.308;2023-08-12T13:05:44;10;8;
62236;PMS5003;69163;48.778;2.308;2023-08-12T13:08:09;7;6;
62236;PMS5003;69163;48.778;2.308;2023-08-12T13:10:34;8;7;
62236;PMS5003;69163;48.778;2.308;2023-08-12T13:12:59;4;4;
62236;PMS5003;69163;48.778;2.308;2023-08-12T13:15:25;9;8;
62236;PMS5003;69163;48.778;2.308;2023-08-12T13:17:50;10;8;
62236;PMS5003;69163;48.778;2.308;2023-08-12T13:20:15;11;9;
62236;PMS5003;69163;48.778;2.308;2023-08-12T13:22:40;10;8;
62236;PMS5003;69163;48.778;2.308;2023-08-12T13:25:06;6;6;
62236;PMS5003;69163;48.778;2.308;2023-08-12T13:27:31;11;11;
62236;PMS5003;69163;48.778;2.308;2023-08-12T13:29:57;12;7;
62236;PMS5003;69163;48.778;2.308;2023-08-12T13:32:23;12;7;
62236;PMS5003;69163;48.778;2.308;2023-08-12T13:34:48;9;8;
62236;PMS5003;69163;48.778;2.308;2023-08-12T13:37:14;11;9;
62236;PMS5003;69163;48.778;2.308;2023-08-12T13:39:39;15;12;
62236;PMS5003;69163;48.778;2.308;2023-08-12T13:42:05;5;5;
62236;PMS5003;69163;48.778;2.308;2023-08-12T13:44:30;9;7;
62236;PMS5003;69163;48.778;2.308;2023-08-12T13:46:55;10;9;
62236;PMS5003;69163;48.778;2.308;2023-08-12T13:49:21;10;7;
62236;PMS5003;69163;48.778;2.308;2023-08-12T13:51:47;10;8;
62236;PMS5003;69163;48.778;2.308;2023-08-12T13:54:13;9;9;
62236;PMS5003;69163;48.778;2.308;2023-08-12T13:56:38;12;10;
62236;PMS5003;69163;48.778;2.308;2023-08-12T13:59:03;9;8;
62236;PMS5003;69163;48.778;2.308;2023-08-12T14:01:29;11;8;
62236;PMS5003;69163;48.778;2.308;2023-08-12T14:03:54;8;8;
62236;PMS5003;69163;48.778;2.308;2023-08-12T14:06:20;9;8;
62236;PMS5003;69163;48.778;2.308;2023-08-12T14:08:46;9;6;
62236;PMS5003;69163;48.778;2.308;2023-08-12T14:11:11;10;10;
62236;PMS5003;69163;48.778;2.308;2023-08-12T14:13:36;9;7;
62236;PMS5003;69163;48.778;2.308;2023-08-12T14:16:01;8;8;
62236;PMS5003;69163;48.778;2.308;2023-08-12T14:18:27;9;8;
62236;PMS5003;69163;48.778;2.308;2023-08-12T14:20:52;10;9;
62236;PMS5003;69163;48.778;2.308;2023-08-12T14:23:17;9;8;
62236;PMS5003;69163;48.778;2.308;2023-08-12T14:25:43;10;7;
62236;PMS5003;69163;48.778;2.308;2023-08-12T14:28:08;6;6;
62236;PMS5003;69163;48.778;2.308;2023-08-12T14:30:33;8;7;
62236;PMS5003;69163;48.778;2.308;2023-08-12T14:32:58;7;6;
62236;PMS5003;69163;48.778;2.308;2023-08-12T14:35:23;13;8;
62236;PMS5003;69163;48.778;2.308;2023-08-12T14:37:49;8;6;
62236;PMS5003;69163;48.778;2.308;2023-08-12T14:40:15;10;8;
62236;PMS5003;69163;48.778;2.308;2023-08-12T14:42:40;8;6;
62236;PMS5003;69163;48.778;2.308;2023-08-12T14:45:06;12;9;
62236;PMS5003;69163;48.778;2.308;2023-08-12T14:47:31;16;9;
62236;PMS5003;69163;48.778;2.308;2023-08-12T14:49:56;10;6;
62236;PMS5003;69163;48.778;2.308;2023-08-12T14:52:22;8;8;
62236;PMS5003;69163;48.778;2.308;2023-08-12T14:54:47;9;9;
62236;PMS5003;69163;48.778;2.308;2023-08-12T14:57:13;9;7;
62236;PMS5003;69163;48.778;2.308;2023-08-12T14:59:38;14;11;
62236;PMS5003;69163;48.778;2.308;2023-08-12T15:02:04;9;6;
62236;PMS5003;69163;48.778;2.308;2023-08-12T15:04:29;7;6;
62236;PMS5003;69163;48.778;2.308;2023-08-12T15:07:00;7;7;
62236;PMS5003;69163;48.778;2.308;2023-08-12T15:09:20;10;10;
62236;PMS5003;69163;48.778;2.308;2023-08-12T15:11:45;7;7;
62236;PMS5003;69163;48.778;2.308;2023-08-12T15:14:11;8;7;
62236;PMS5003;69163;48.778;2.308;2023-08-12T15:16:37;8;7;
62236;PMS5003;69163;48.778;2.308;2023-08-12T15:19:03;7;6;
62236;PMS5003;69163;48.778;2.308;2023-08-12T15:21:28;13;9;
62236;PMS5003;69163;48.778;2.308;2023-08-12T15:23:53;8;6;
62236;PMS5003;69163;48.778;2.308;2023-08-12T15:26:19;6;6;
62236;PMS5003;69163;48.778;2.308;2023-08-12T15:28:44;9;7;
62236;PMS5003;69163;48.778;2.308;2023-08-12T15:31:10;10;6;
62236;PMS5003;69163;48.778;2.308;2023-08-12T15:33:35;6;6;
62236;PMS5003;69163;48.778;2.308;2023-08-12T15:36:00;8;6;
62236;PMS5003;69163;48.778;2.308;2023-08-12T15:38:25;10;7;
62236;PMS5003;69163;48.778;2.308;2023-08-12T15:40:51;8;7;
62236;PMS5003;69163;48.778;2.308;2023-08-12T15:43:16;9;8;
62236;PMS5003;69163;48.778;2.308;2023-08-12T15:45:42;13;8;
62236;PMS5003;69163;48.778;2.308;2023-08-12T15:48:07;16;9;
62236;PMS5003;69163;48.778;2.308;2023-08-12T15:50:32;5;5;
62236;PMS5003;69163;48.778;2.308;2023-08-12T15:52:57;9;6;
62236;PMS5003;69163;48.778;2.308;2023-08-12T15:55:23;6;6;
62236;PMS5003;69163;48.778;2.308;2023-08-12T15:57:48;7;7;
62236;PMS5003;69163;48.778;2.308;2023-08-12T16:00:14;8;8;
62236;PMS5003;69163;48.778;2.308;2023-08-12T16:02:39;11;8;
62236;PMS5003;69163;48.778;2.308;2023-08-12T16:05:04;9;8;
62236;PMS5003;69163;48.778;2.308;2023-08-12T16:07:30;8;7;
62236;PMS5003;69163;48.778;2.308;2023-08-12T16:09:55;6;6;
62236;PMS5003;69163;48.778;2.308;2023-08-12T16:12:21;6;5;
62236;PMS5003;69163;48.778;2.308;2023-08-12T16:14:46;6;6;
62236;PMS5003;69163;48.778;2.308;2023-08-12T16:17:12;6;5;
62236;PMS5003;69163;48.778;2.308;2023-08-12T16:19:37;8;8;
62236;PMS5003;69163;48.778;2.308;2023-08-12T16:22:02;9;6;
62236;PMS5003;69163;48.778;2.308;2023-08-12T16:24:28;10;6;
62236;PMS5003;69163;48.778;2.308;2023-08-12T16:26:53;9;6;
62236;PMS5003;69163;48.778;2.308;2023-08-12T16:29:18;8;8;
62236;PMS5003;69163;48.778;2.308;2023-08-12T16:31:44;7;5;
62236;PMS5003;69163;48.778;2.308;2023-08-12T16:34:09;8;8;
62236;PMS5003;69163;48.778;2.308;2023-08-12T16:36:34;12;8;
62236;PMS5003;69163;48.778;2.308;2023-08-12T16:38:59;10;7;
62236;PMS5003;69163;48.778;2.308;2023-08-12T16:41:24;8;7;
62236;PMS5003;69163;48.778;2.308;2023-08-12T16:43:50;7;5;